createdAt,value
2023-05-20T00:01:24.424Z,97960.31
2023-05-20T00:03:52.893Z,97934.63
2023-05-20T00:06:21.315Z,97945.59
2023-05-20T00:08:49.605Z,97936.84
2023-05-20T00:11:17.894Z,97951.66
2023-05-20T00:13:46.621Z,97941.97
2023-05-20T00:16:16.394Z,97939.00
2023-05-20T00:18:44.775Z,97943.25
2023-05-20T00:21:12.998Z,97942.69
2023-05-20T00:23:41.293Z,97940.91
2023-05-20T00:26:09.507Z,97929.63
2023-05-20T00:28:37.884Z,97932.78
2023-05-20T00:31:06.502Z,97930.88
2023-05-20T00:33:36.514Z,97927.66
2023-05-20T00:36:05.076Z,97943.03
2023-05-20T00:38:33.291Z,97932.59
2023-05-20T00:41:01.580Z,97937.94
2023-05-20T00:43:29.919Z,97944.72
2023-05-20T00:45:58.131Z,97950.25
2023-05-20T00:48:26.526Z,97951.97
2023-05-20T00:50:56.694Z,97933.66
2023-05-20T00:53:25.233Z,97939.41
2023-05-20T00:55:53.427Z,97924.59
2023-05-20T00:58:21.524Z,97928.75
2023-05-20T01:00:50.407Z,97934.06
2023-05-20T01:03:19.075Z,97936.63
2023-05-20T01:05:47.496Z,97922.78
2023-05-20T01:08:17.112Z,97938.78
2023-05-20T01:10:48.796Z,97928.53
2023-05-20T01:13:22.018Z,97918.81
2023-05-20T01:15:51.742Z,97912.66
2023-05-20T01:18:21.553Z,97912.53
2023-05-20T01:20:51.439Z,97912.75
2023-05-20T01:23:21.959Z,97916.78
2023-05-20T01:25:50.171Z,97905.09
2023-05-20T01:28:18.382Z,97902.28
2023-05-20T01:30:52.331Z,97900.63
2023-05-20T01:33:23.873Z,97909.13
2023-05-20T01:35:52.627Z,97927.34
2023-05-20T01:38:24.656Z,97906.34
2023-05-20T01:40:54.074Z,97906.06
2023-05-20T01:43:23.258Z,97913.69
2023-05-20T01:45:51.990Z,97898.16
2023-05-20T01:48:20.240Z,97895.06
2023-05-20T01:50:48.490Z,97897.09
2023-05-20T01:53:18.383Z,97904.03
2023-05-20T01:55:47.919Z,97894.41
2023-05-20T01:58:16.117Z,97884.63
2023-05-20T02:00:44.442Z,97900.59
2023-05-20T02:03:12.787Z,97878.69
2023-05-20T02:05:41.826Z,97882.09
2023-05-20T02:08:10.104Z,97879.53
2023-05-20T02:10:39.363Z,97877.72
2023-05-20T02:13:09.004Z,97868.22
2023-05-20T02:15:37.357Z,97878.44
2023-05-20T02:18:05.824Z,97891.44
2023-05-20T02:20:37.259Z,97889.31
2023-05-20T02:23:06.045Z,97900.63
2023-05-20T02:25:34.633Z,97908.81
2023-05-20T02:28:06.033Z,97906.28
2023-05-20T02:30:35.868Z,97922.66
2023-05-20T02:33:04.642Z,97927.88
2023-05-20T02:35:33.056Z,97907.00
2023-05-20T02:38:01.425Z,97899.13
2023-05-20T02:40:29.644Z,97888.91
2023-05-20T02:42:57.864Z,97893.81
2023-05-20T02:45:26.102Z,97891.47
2023-05-20T02:47:55.758Z,97906.16
2023-05-20T02:50:23.989Z,97906.59
2023-05-20T02:52:52.286Z,97900.94
2023-05-20T02:55:20.603Z,97903.81
2023-05-20T02:57:48.775Z,97896.78
2023-05-20T03:00:17.340Z,97892.31
2023-05-20T03:02:45.578Z,97891.25
2023-05-20T03:05:15.368Z,97887.84
2023-05-20T03:07:43.615Z,97901.50
2023-05-20T03:10:11.994Z,97899.56
2023-05-20T03:12:41.066Z,97908.19
2023-05-20T03:15:11.493Z,97901.06
2023-05-20T03:17:40.192Z,97907.44
2023-05-20T03:20:10.350Z,97904.78
2023-05-20T03:22:39.939Z,97908.06
2023-05-20T03:25:09.770Z,97903.59
2023-05-20T03:27:38.247Z,97903.41
2023-05-20T03:30:08.407Z,97907.53
2023-05-20T03:32:37.124Z,97911.72
2023-05-20T03:35:05.824Z,97900.41
2023-05-20T03:37:34.177Z,97904.88
2023-05-20T03:40:06.300Z,97916.81
2023-05-20T03:42:35.826Z,97910.63
2023-05-20T03:45:04.737Z,97900.31
2023-05-20T03:47:38.273Z,97905.94
2023-05-20T03:50:08.489Z,97904.25
2023-05-20T03:52:37.430Z,97910.22
2023-05-20T03:55:09.075Z,97900.63
2023-05-20T03:57:37.784Z,97908.41
2023-05-20T04:00:10.321Z,97911.50
2023-05-20T04:02:44.674Z,97898.28
2023-05-20T04:05:16.783Z,97917.69
2023-05-20T04:07:45.077Z,97910.22
2023-05-20T04:10:16.058Z,97914.91
2023-05-20T04:12:45.432Z,97920.00
2023-05-20T04:15:15.080Z,97914.03
2023-05-20T04:18:10.523Z,97921.25
2023-05-20T04:20:41.553Z,97919.34
2023-05-20T04:23:10.809Z,97931.28
2023-05-20T04:25:41.383Z,97924.13
2023-05-20T04:28:10.859Z,97909.50
2023-05-20T04:30:39.171Z,97922.84
2023-05-20T04:33:08.632Z,97909.25
2023-05-20T04:35:37.842Z,97912.16
2023-05-20T04:38:07.766Z,97912.56
2023-05-20T04:40:36.183Z,97919.63
2023-05-20T04:43:06.158Z,97913.13
2023-05-20T04:45:35.942Z,97909.75
2023-05-20T04:48:04.401Z,97905.75
2023-05-20T04:50:32.699Z,97918.88
2023-05-20T04:53:00.867Z,97914.94
2023-05-20T04:55:30.031Z,97919.25
2023-05-20T04:57:58.192Z,97908.00
2023-05-20T05:00:28.016Z,97905.88
2023-05-20T05:02:56.525Z,97920.53
2023-05-20T05:05:24.830Z,97913.31
2023-05-20T05:07:54.352Z,97914.19
2023-05-20T05:10:25.298Z,97912.53
2023-05-20T05:12:53.453Z,97906.19
2023-05-20T05:15:21.989Z,97906.34
2023-05-20T05:17:51.773Z,97906.34
2023-05-20T05:20:20.629Z,97915.84
2023-05-20T05:22:50.586Z,97923.84
2023-05-20T05:25:18.786Z,97912.78
2023-05-20T05:27:49.508Z,97925.78
2023-05-20T05:30:18.491Z,97922.16
2023-05-20T05:32:47.043Z,97921.19
2023-05-20T05:35:16.994Z,97915.09
2023-05-20T05:37:45.435Z,97915.25
2023-05-20T05:40:14.529Z,97932.84
2023-05-20T05:42:42.874Z,97933.09
2023-05-20T05:45:12.580Z,97926.31
2023-05-20T05:47:42.219Z,97928.97
2023-05-20T05:50:11.369Z,97916.59
2023-05-20T05:52:41.405Z,97920.94
2023-05-20T05:55:11.724Z,97923.00
2023-05-20T05:57:40.272Z,97919.22
2023-05-20T06:00:10.767Z,97920.69
2023-05-20T06:02:48.920Z,97924.09
2023-05-20T06:05:32.954Z,97914.06
2023-05-20T06:08:03.028Z,97916.53
2023-05-20T06:10:33.843Z,97915.00
2023-05-20T06:13:02.117Z,97930.06
2023-05-20T06:15:30.748Z,97916.91
2023-05-20T06:17:59.183Z,97908.31
2023-05-20T06:20:28.401Z,97931.53
2023-05-20T06:22:56.828Z,97924.81
2023-05-20T06:25:31.338Z,97925.38
2023-05-20T06:27:59.670Z,97925.78
2023-05-20T06:30:28.555Z,97920.88
2023-05-20T06:32:56.879Z,97920.78
2023-05-20T06:35:25.104Z,97925.94
2023-05-20T06:37:53.557Z,97920.16
2023-05-20T06:40:23.598Z,97916.16
2023-05-20T06:42:53.330Z,97916.63
2023-05-20T06:45:41.623Z,97912.09
2023-05-20T06:48:22.589Z,97910.13
2023-05-20T06:50:51.072Z,97904.47
2023-05-20T06:53:19.362Z,97900.56
2023-05-20T06:55:48.166Z,97901.28
2023-05-20T06:58:17.861Z,97889.28
2023-05-20T07:00:46.037Z,97897.56
2023-05-20T07:03:15.912Z,97888.56
2023-05-20T07:05:44.114Z,97886.13
2023-05-20T07:08:12.852Z,97881.78
2023-05-20T07:10:41.197Z,97877.75
2023-05-20T07:13:10.653Z,97879.06
2023-05-20T07:15:40.267Z,97878.97
2023-05-20T07:18:08.779Z,97874.94
2023-05-20T07:20:36.976Z,97873.66
2023-05-20T07:23:10.483Z,97870.78
2023-05-20T07:25:43.206Z,97864.75
2023-05-20T07:28:11.523Z,97867.53
2023-05-20T07:30:41.457Z,97871.97
2023-05-20T07:33:35.467Z,97858.72
2023-05-20T07:36:03.786Z,97860.91
2023-05-20T07:38:32.882Z,97861.75
2023-05-20T07:41:04.746Z,97874.16
2023-05-20T07:43:33.265Z,97865.31
2023-05-20T07:46:04.696Z,97865.28
2023-05-20T07:48:33.057Z,97866.28
2023-05-20T07:51:01.276Z,97866.06
2023-05-20T07:53:29.966Z,97861.66
2023-05-20T07:55:58.742Z,97862.75
2023-05-20T07:58:29.586Z,97863.38
2023-05-20T08:00:58.180Z,97863.81
2023-05-20T08:03:28.507Z,97859.06
2023-05-20T08:06:08.142Z,97862.72
2023-05-20T08:08:36.663Z,97862.66
2023-05-20T08:11:10.953Z,97861.75
2023-05-20T08:13:40.677Z,97860.88
2023-05-20T08:16:09.356Z,97847.06
2023-05-20T08:18:39.550Z,97849.75
2023-05-20T08:21:09.177Z,97846.56
2023-05-20T08:23:40.388Z,97849.03
2023-05-20T08:26:09.082Z,97837.56
2023-05-20T08:28:41.411Z,97847.91
2023-05-20T08:31:09.957Z,97843.59
2023-05-20T08:33:39.787Z,97828.78
2023-05-20T08:36:09.511Z,97826.78
2023-05-20T08:38:37.854Z,97818.50
2023-05-20T08:41:06.227Z,97813.53
2023-05-20T08:43:35.639Z,97824.69
2023-05-20T08:46:06.641Z,97818.34
2023-05-20T08:48:37.261Z,97810.19
2023-05-20T08:51:10.676Z,97808.50
2023-05-20T08:53:38.990Z,97804.06
2023-05-20T08:56:09.285Z,97793.94
2023-05-20T08:58:37.680Z,97794.31
2023-05-20T09:01:08.459Z,97800.03
2023-05-20T09:03:36.759Z,97806.25
2023-05-20T09:06:08.600Z,97795.66
2023-05-20T09:08:37.786Z,97802.72
2023-05-20T09:11:06.048Z,97789.09
2023-05-20T09:13:34.380Z,97780.31
2023-05-20T09:16:03.649Z,97784.69
2023-05-20T09:18:32.205Z,97788.84
2023-05-20T09:21:08.015Z,97794.94
2023-05-20T09:23:39.314Z,97790.59
2023-05-20T09:26:07.762Z,97787.88
2023-05-20T09:28:38.490Z,97783.72
2023-05-20T09:31:08.985Z,97791.59
2023-05-20T09:33:38.634Z,97782.88
2023-05-20T09:36:09.822Z,97781.72
2023-05-20T09:38:39.910Z,97779.69
2023-05-20T09:41:13.106Z,97772.47
2023-05-20T09:43:42.488Z,97773.13
2023-05-20T09:46:11.836Z,97775.00
2023-05-20T09:48:41.266Z,97776.78
2023-05-20T09:51:13.471Z,97767.38
2023-05-20T09:53:43.216Z,97767.66
2023-05-20T09:56:11.858Z,97762.13
2023-05-20T09:58:43.370Z,97769.34
2023-05-20T10:01:11.637Z,97757.59
2023-05-20T10:03:42.562Z,97771.72
2023-05-20T10:06:30.388Z,97760.06
2023-05-20T10:09:23.457Z,97760.56
2023-05-20T10:12:02.776Z,97763.69
2023-05-20T10:14:42.079Z,97759.50
2023-05-20T10:17:18.753Z,97743.13
2023-05-20T10:19:48.092Z,97751.16
2023-05-20T10:22:29.204Z,97760.50
2023-05-20T10:25:01.423Z,97746.97
2023-05-20T10:27:29.750Z,97748.31
2023-05-20T10:29:58.648Z,97743.00
2023-05-20T10:32:28.263Z,97742.06
2023-05-20T10:35:01.886Z,97731.09
2023-05-20T10:37:35.062Z,97743.75
2023-05-20T10:40:11.677Z,97742.72
2023-05-20T10:42:40.390Z,97746.34
2023-05-20T10:45:09.934Z,97752.69
2023-05-20T10:47:38.774Z,97745.34
2023-05-20T10:50:08.141Z,97736.41
2023-05-20T10:52:38.554Z,97727.06
2023-05-20T10:55:07.991Z,97725.34
2023-05-20T10:57:36.475Z,97731.31
2023-05-20T11:00:10.940Z,97724.75
2023-05-20T11:02:39.694Z,97729.38
2023-05-20T11:05:12.353Z,97730.72
2023-05-20T11:07:41.967Z,97734.81
2023-05-20T11:10:11.563Z,97733.53
2023-05-20T11:12:41.231Z,97729.06
2023-05-20T11:15:13.244Z,97722.84
2023-05-20T11:17:53.872Z,97710.69
2023-05-20T11:20:22.468Z,97714.03
2023-05-20T11:22:52.850Z,97714.56
2023-05-20T11:25:23.156Z,97710.09
2023-05-20T11:27:52.430Z,97709.22
2023-05-20T11:30:21.311Z,97699.53
2023-05-20T11:32:59.085Z,97700.50
2023-05-20T11:35:30.249Z,97698.13
2023-05-20T11:38:04.088Z,97693.19
2023-05-20T11:40:46.360Z,97697.97
2023-05-20T11:43:18.092Z,97694.38
2023-05-20T11:45:47.894Z,97686.81
2023-05-20T11:48:17.490Z,97701.16
2023-05-20T11:50:47.618Z,97689.53
2023-05-20T11:53:19.073Z,97684.19
2023-05-20T11:55:49.003Z,97696.31
2023-05-20T11:58:18.038Z,97685.97
2023-05-20T12:00:51.678Z,97695.59
2023-05-20T12:03:26.118Z,97690.72
2023-05-20T12:05:54.762Z,97682.53
2023-05-20T12:08:24.499Z,97677.56
2023-05-20T12:10:52.756Z,97680.41
2023-05-20T12:13:21.401Z,97683.88
2023-05-20T12:15:49.590Z,97688.56
2023-05-20T12:18:17.870Z,97685.47
2023-05-20T12:20:46.087Z,97667.50
2023-05-20T12:23:14.408Z,97664.88
2023-05-20T12:25:45.805Z,97681.34
2023-05-20T12:28:14.134Z,97672.97
2023-05-20T12:30:42.533Z,97674.19
2023-05-20T12:33:11.218Z,97685.06
2023-05-20T12:35:40.575Z,97675.09
2023-05-20T12:38:09.533Z,97677.72
2023-05-20T12:40:38.879Z,97663.44
2023-05-20T12:43:08.779Z,97668.00
2023-05-20T12:45:37.155Z,97668.19
2023-05-20T12:48:07.272Z,97669.22
2023-05-20T12:50:35.745Z,97666.81
2023-05-20T12:53:04.192Z,97665.28
2023-05-20T12:55:32.344Z,97669.34
2023-05-20T12:58:00.603Z,97667.06
2023-05-20T13:00:30.312Z,97663.53
2023-05-20T13:02:58.787Z,97658.19
2023-05-20T13:05:27.389Z,97658.75
2023-05-20T13:07:55.655Z,97657.34
2023-05-20T13:10:24.035Z,97655.66
2023-05-20T13:12:52.170Z,97652.25
2023-05-20T13:15:20.434Z,97645.28
2023-05-20T13:17:50.100Z,97640.03
2023-05-20T13:20:20.005Z,97645.41
2023-05-20T13:22:50.289Z,97645.06
2023-05-20T13:25:19.188Z,97626.31
2023-05-20T13:27:47.455Z,97632.84
2023-05-20T13:30:15.640Z,97628.53
2023-05-20T13:32:44.038Z,97623.72
2023-05-20T13:35:14.801Z,97632.59
2023-05-20T13:37:42.979Z,97632.78
2023-05-20T13:40:12.147Z,97633.53
2023-05-20T13:42:40.475Z,97630.22
2023-05-20T13:45:09.482Z,97630.75
2023-05-20T13:47:37.777Z,97628.53
2023-05-20T13:50:07.346Z,97628.28
2023-05-20T13:52:37.077Z,97635.56
2023-05-20T13:55:05.925Z,97617.81
2023-05-20T13:57:34.265Z,97624.91
2023-05-20T14:00:02.510Z,97623.59
2023-05-20T14:02:37.037Z,97629.13
2023-05-20T14:05:06.148Z,97609.34
2023-05-20T14:07:34.535Z,97612.06
2023-05-20T14:10:04.228Z,97614.72
2023-05-20T14:12:32.482Z,97609.63
2023-05-20T14:15:00.816Z,97591.53
2023-05-20T14:17:29.242Z,97600.91
2023-05-20T14:19:57.532Z,97595.59
2023-05-20T14:22:25.919Z,97584.59
2023-05-20T14:24:54.161Z,97585.91
2023-05-20T14:27:23.849Z,97582.34
2023-05-20T14:29:52.148Z,97582.78
2023-05-20T14:32:20.433Z,97578.44
2023-05-20T14:34:48.631Z,97581.03
2023-05-20T14:37:17.040Z,97569.88
2023-05-20T14:39:45.234Z,97571.94
2023-05-20T14:42:13.596Z,97571.66
2023-05-20T14:44:43.229Z,97574.84
2023-05-20T14:47:11.580Z,97577.28
2023-05-20T14:49:41.726Z,97571.94
2023-05-20T14:52:09.899Z,97569.28
2023-05-20T14:54:38.178Z,97570.34
2023-05-20T14:57:08.021Z,97559.59
2023-05-20T14:59:36.236Z,97563.28
2023-05-20T15:02:06.670Z,97560.25
2023-05-20T15:04:35.053Z,97559.28
2023-05-20T15:07:03.266Z,97562.59
2023-05-20T15:09:31.623Z,97558.22
2023-05-20T15:11:59.805Z,97560.66
2023-05-20T15:14:28.206Z,97551.19
2023-05-20T15:16:56.581Z,97549.16
2023-05-20T15:19:26.523Z,97548.56
2023-05-20T15:21:55.148Z,97556.31
2023-05-20T15:24:23.650Z,97544.69
2023-05-20T15:26:52.102Z,97543.22
2023-05-20T15:29:20.375Z,97538.56
2023-05-20T15:31:48.697Z,97533.13
2023-05-20T15:34:16.939Z,97533.13
2023-05-20T15:36:46.741Z,97536.84
2023-05-20T15:39:14.991Z,97543.56
2023-05-20T15:41:43.403Z,97536.13
2023-05-20T15:44:12.108Z,97531.88
2023-05-20T15:46:40.439Z,97512.81
2023-05-20T15:49:08.708Z,97519.19
2023-05-20T15:51:37.261Z,97525.00
2023-05-20T15:54:07.173Z,97520.28
2023-05-20T15:56:35.697Z,97517.78
2023-05-20T15:59:03.859Z,97521.84
2023-05-20T16:01:32.327Z,97514.59
2023-05-20T16:04:00.743Z,97524.06
2023-05-20T16:06:29.067Z,97514.13
2023-05-20T16:08:57.346Z,97528.16
2023-05-20T16:11:27.478Z,97522.06
2023-05-20T16:13:55.919Z,97523.09
2023-05-20T16:16:25.181Z,97524.78
2023-05-20T16:18:54.121Z,97518.22
2023-05-20T16:21:25.082Z,97518.38
2023-05-20T16:23:53.898Z,97518.72
2023-05-20T16:26:22.875Z,97524.44
2023-05-20T16:28:52.625Z,97527.47
2023-05-20T16:31:21.363Z,97527.47
2023-05-20T16:33:49.585Z,97531.81
2023-05-20T16:36:17.801Z,97533.84
2023-05-20T16:38:46.980Z,97527.75
2023-05-20T16:41:16.330Z,97531.97
2023-05-20T16:43:44.813Z,97530.06
2023-05-20T16:46:14.931Z,97537.28
2023-05-20T16:48:43.909Z,97548.53
2023-05-20T16:51:12.151Z,97560.19
2023-05-20T16:53:40.656Z,97568.09
2023-05-20T16:56:09.354Z,97565.69
2023-05-20T16:58:37.534Z,97584.19
2023-05-20T17:01:05.869Z,97591.34
2023-05-20T17:03:36.910Z,97619.78
2023-05-20T17:06:05.793Z,97625.38
2023-05-20T17:08:34.053Z,97617.66
2023-05-20T17:11:02.463Z,97608.44
2023-05-20T17:13:30.736Z,97608.78
2023-05-20T17:15:59.067Z,97595.84
2023-05-20T17:18:27.426Z,97599.31
2023-05-20T17:20:57.151Z,97601.59
2023-05-20T17:23:25.451Z,97594.59
2023-05-20T17:25:53.742Z,97601.81
2023-05-20T17:28:22.294Z,97600.19
2023-05-20T17:30:50.689Z,97596.09
2023-05-20T17:33:19.174Z,97594.63
2023-05-20T17:35:47.558Z,97601.84
2023-05-20T17:38:17.703Z,97591.41
2023-05-20T17:40:46.208Z,97600.91
2023-05-20T17:43:14.850Z,97590.19
2023-05-20T17:45:43.218Z,97599.09
2023-05-20T17:48:11.920Z,97608.00
2023-05-20T17:50:40.366Z,97622.28
2023-05-20T17:53:08.575Z,97628.94
2023-05-20T17:55:38.882Z,97632.88
2023-05-20T17:58:08.347Z,97631.78
2023-05-20T18:00:42.249Z,97624.84
2023-05-20T18:03:11.020Z,97629.81
2023-05-20T18:05:39.233Z,97634.88
2023-05-20T18:08:07.340Z,97641.09
2023-05-20T18:10:37.258Z,97629.78
2023-05-20T18:13:05.910Z,97629.94
2023-05-20T18:15:34.246Z,97623.59
2023-05-20T18:18:02.714Z,97622.19
2023-05-20T18:20:31.018Z,97625.41
2023-05-20T18:22:59.555Z,97628.41
2023-05-20T18:25:27.937Z,97619.91
2023-05-20T18:27:57.682Z,97628.50
2023-05-20T18:30:26.250Z,97630.78
2023-05-20T18:32:54.469Z,97647.56
2023-05-20T18:35:22.892Z,97653.78
2023-05-20T18:37:51.550Z,97651.19
2023-05-20T18:40:20.727Z,97638.19
2023-05-20T18:42:48.999Z,97632.56
2023-05-20T18:45:18.855Z,97647.81
2023-05-20T18:47:47.363Z,97650.19
2023-05-20T18:50:15.676Z,97659.91
2023-05-20T18:52:43.911Z,97655.19
2023-05-20T18:55:12.208Z,97649.41
2023-05-20T18:57:41.015Z,97643.75
2023-05-20T19:00:12.542Z,97645.41
2023-05-20T19:02:42.973Z,97656.97
2023-05-20T19:05:13.621Z,97663.84
2023-05-20T19:07:42.253Z,97667.13
2023-05-20T19:10:11.035Z,97678.34
2023-05-20T19:12:39.274Z,97668.28
2023-05-20T19:15:08.858Z,97683.22
2023-05-20T19:17:37.167Z,97692.94
2023-05-20T19:20:08.717Z,97705.09
2023-05-20T19:22:37.561Z,97703.09
2023-05-20T19:25:06.416Z,97704.91
2023-05-20T19:27:34.663Z,97699.13
2023-05-20T19:30:02.973Z,97697.84
2023-05-20T19:32:31.346Z,97691.59
2023-05-20T19:34:59.657Z,97699.38
2023-05-20T19:37:29.509Z,97691.13
2023-05-20T19:39:57.725Z,97696.50
2023-05-20T19:42:26.090Z,97703.34
2023-05-20T19:44:54.917Z,97703.16
2023-05-20T19:47:23.276Z,97700.81
2023-05-20T19:49:51.467Z,97701.06
2023-05-20T19:52:20.731Z,97687.91
2023-05-20T19:54:50.543Z,97699.94
2023-05-20T19:57:18.820Z,97716.00
2023-05-20T19:59:47.065Z,97712.53
2023-05-20T20:02:15.361Z,97711.78
2023-05-20T20:04:43.617Z,97706.22
2023-05-20T20:07:11.987Z,97702.25
2023-05-20T20:09:40.219Z,97704.44
2023-05-20T20:12:10.191Z,97690.28
2023-05-20T20:14:38.593Z,97692.94
2023-05-20T20:17:06.885Z,97695.84
2023-05-20T20:19:35.112Z,97698.50
2023-05-20T20:22:03.403Z,97696.94
2023-05-20T20:24:31.745Z,97702.88
2023-05-20T20:26:59.999Z,97697.91
2023-05-20T20:29:29.820Z,97686.75
2023-05-20T20:31:59.393Z,97698.69
2023-05-20T20:34:27.690Z,97711.19
2023-05-20T20:36:56.223Z,97708.53
2023-05-20T20:39:25.812Z,97716.78
2023-05-20T20:41:54.730Z,97689.94
2023-05-20T20:44:23.056Z,97696.31
2023-05-20T20:46:55.075Z,97690.56
2023-05-20T20:49:25.742Z,97693.75
2023-05-20T20:51:55.264Z,97685.28
2023-05-20T20:54:23.383Z,97686.75
2023-05-20T20:56:52.011Z,97694.03
2023-05-20T20:59:22.074Z,97694.88
2023-05-20T21:01:52.866Z,97685.53
2023-05-20T21:04:22.657Z,97696.59
2023-05-20T21:06:51.322Z,97688.69
2023-05-20T21:09:19.540Z,97687.25
2023-05-20T21:11:49.479Z,97683.00
2023-05-20T21:14:17.857Z,97676.44
2023-05-20T21:16:46.075Z,97676.69
2023-05-20T21:19:14.462Z,97674.00
2023-05-20T21:21:44.178Z,97661.25
2023-05-20T21:24:12.405Z,97663.09
2023-05-20T21:26:40.624Z,97670.97
2023-05-20T21:29:10.146Z,97670.97
2023-05-20T21:31:38.472Z,97652.66
2023-05-20T21:34:06.785Z,97647.91
2023-05-20T21:36:35.078Z,97658.38
2023-05-20T21:39:04.988Z,97644.28
2023-05-20T21:41:33.188Z,97647.22
2023-05-20T21:44:01.420Z,97658.59
2023-05-20T21:46:29.626Z,97657.66
2023-05-20T21:48:57.839Z,97646.47
2023-05-20T21:51:26.083Z,97645.25
2023-05-20T21:53:54.321Z,97653.25
2023-05-20T21:56:23.955Z,97648.63
2023-05-20T21:58:52.096Z,97651.78
2023-05-20T22:01:20.430Z,97643.53
2023-05-20T22:03:51.525Z,97636.00
2023-05-20T22:06:21.522Z,97641.47
2023-05-20T22:08:50.184Z,97650.03
2023-05-20T22:11:19.949Z,97648.72
2023-05-20T22:13:49.811Z,97638.84
2023-05-20T22:16:18.870Z,97649.72
2023-05-20T22:18:47.930Z,97633.09
2023-05-20T22:21:16.366Z,97635.88
2023-05-20T22:23:44.584Z,97643.13
2023-05-20T22:26:12.773Z,97630.47
2023-05-20T22:28:41.068Z,97641.13
2023-05-20T22:31:10.602Z,97636.06
2023-05-20T22:33:41.532Z,97626.19
2023-05-20T22:36:09.913Z,97628.47
2023-05-20T22:38:38.046Z,97629.66
2023-05-20T22:41:06.297Z,97624.91
2023-05-20T22:43:34.497Z,97630.00
2023-05-20T22:46:02.867Z,97610.66
2023-05-20T22:48:32.536Z,97619.88
2023-05-20T22:51:01.299Z,97633.06
2023-05-20T22:53:29.478Z,97613.50
2023-05-20T22:56:00.056Z,97627.56
2023-05-20T22:58:29.763Z,97629.47
2023-05-20T23:00:59.651Z,97623.53
2023-05-20T23:03:27.930Z,97615.66
2023-05-20T23:05:57.532Z,97605.91
2023-05-20T23:08:26.015Z,97623.34
2023-05-20T23:10:54.250Z,97615.06
2023-05-20T23:13:22.469Z,97621.91
2023-05-20T23:15:50.739Z,97622.25
2023-05-20T23:18:19.283Z,97617.88
2023-05-20T23:20:47.769Z,97615.38
2023-05-20T23:23:19.262Z,97620.19
2023-05-20T23:25:53.308Z,97612.56
2023-05-20T23:28:21.397Z,97603.22
2023-05-20T23:30:49.654Z,97605.13
2023-05-20T23:33:22.936Z,97603.63
2023-05-20T23:35:53.459Z,97595.78
2023-05-20T23:38:23.188Z,97596.84
2023-05-20T23:40:51.622Z,97591.72
2023-05-20T23:43:19.852Z,97590.00
2023-05-20T23:45:48.153Z,97590.25
2023-05-20T23:48:18.008Z,97591.31
2023-05-20T23:50:46.714Z,97587.88
2023-05-20T23:53:14.862Z,97576.00
2023-05-20T23:55:45.334Z,97581.94
2023-05-20T23:58:13.584Z,97581.81
